Time;durP1;ratioP1;P1;durP2;ratioP2;P2;SDS_P1;SDS_P2;PMS_P1;PMS_P2;Temp;Humidity;BMP_temperature;BMP_pressure;BME280_temperature;BME280_humidity;BME280_pressure;Samples;Min_cycle;Max_cycle;Signal;HPM_P1;HPM_P2
2021/11/27 00:02:08;;;;;;;;;;;;;;;20.36;35.79;98139.66;7285383;19;154083;-52
2021/11/27 00:04:35;;;;;;;;;;;;;;;20.39;35.72;98149.34;7285981;19;151785;-53
2021/11/27 00:07:02;;;;;;;;;;;;;;;20.39;35.86;98132.53;7287966;19;152800;-52
2021/11/27 00:09:29;;;;;;;;;;;;;;;20.42;35.95;98129.75;7286795;19;153409;-53
2021/11/27 00:11:57;;;;;;;;;;;;;;;20.44;35.98;98114.56;7286888;19;152226;-52
2021/11/27 00:14:25;;;;;;;;;;;;;;;20.45;36.03;98113.34;7283811;19;152811;-52
2021/11/27 00:16:52;;;;;;;;;;;;;;;20.46;35.82;98090.56;7284545;19;154210;-52
2021/11/27 00:19:19;;;;;;;;;;;;;;;20.47;35.83;98094.97;7286436;19;152215;-52
2021/11/27 00:21:46;;;;;;;;;;;;;;;20.49;36.13;98091.81;7291155;19;153532;-52
2021/11/27 00:24:13;;;;;;;;;;;;;;;20.49;35.71;98074.97;7285199;19;152537;-52
2021/11/27 00:26:40;;;;;;;;;;;;;;;20.47;35.81;98072.53;7288457;19;152906;-53
2021/11/27 00:29:08;;;;;;;;;;;;;;;20.49;35.88;98067.34;7287032;19;154283;-53
2021/11/27 00:31:38;;;;;;;;;;;;;;;20.48;35.54;98048.13;7285971;19;151721;-53
2021/11/27 00:34:05;;;;;;;;;;;;;;;20.46;36.49;98034.47;7283665;19;153294;-53
2021/11/27 00:36:32;;;;;;;;;;;;;;;20.45;36.24;98024.41;7285953;19;152690;-53
2021/11/27 00:38:59;;;;;;;;;;;;;;;20.42;36.04;98017.59;7285331;19;152288;-53
2021/11/27 00:41:26;;;;;;;;;;;;;;;20.40;36.10;98005.94;7282844;19;152694;-53
2021/11/27 00:43:54;;;;;;;;;;;;;;;20.38;36.08;98007.50;7292881;19;152043;-53
2021/11/27 00:46:21;;;;;;;;;;;;;;;20.35;36.10;98000.66;7285087;19;151767;-53
2021/11/27 00:48:48;;;;;;;;;;;;;;;20.34;36.29;97985.03;7281056;19;152775;-53
2021/11/27 00:51:17;;;;;;;;;;;;;;;20.34;36.43;97984.22;7285679;19;152003;-52
2021/11/27 00:53:45;;;;;;;;;;;;;;;20.33;36.58;97988.22;7283770;19;153316;-53
2021/11/27 00:56:14;;;;;;;;;;;;;;;20.32;36.27;97972.56;7285237;19;154285;-53
2021/11/27 00:58:54;;;;;;;;;;;;;;;20.31;36.26;97966.13;7285396;19;152733;-53
2021/11/27 01:01:24;;;;;;;;;;;;;;;20.29;36.78;97962.91;7285451;19;152832;-53
2021/11/27 01:03:51;;;;;;;;;;;;;;;20.26;36.60;97968.47;7291035;19;154045;-53
2021/11/27 01:06:21;;;;;;;;;;;;;;;20.22;36.58;97956.34;7286482;19;152808;-53
2021/11/27 01:08:49;;;;;;;;;;;;;;;20.20;36.90;97947.53;7285540;19;153366;-53
2021/11/27 01:11:19;;;;;;;;;;;;;;;20.18;37.02;97944.28;7285442;19;151789;-53
2021/11/27 01:13:46;;;;;;;;;;;;;;;20.15;37.08;97934.66;7283549;19;153396;-53
2021/11/27 01:16:15;;;;;;;;;;;;;;;20.15;37.40;97929.06;7283562;19;153686;-53
2021/11/27 01:18:42;;;;;;;;;;;;;;;20.11;37.23;97922.59;7287571;19;151900;-52
2021/11/27 01:21:11;;;;;;;;;;;;;;;20.09;37.42;97912.94;7285763;19;151717;-53
2021/11/27 01:23:38;;;;;;;;;;;;;;;20.06;37.50;97908.09;7285096;19;154534;-53
2021/11/27 01:26:05;;;;;;;;;;;;;;;20.06;37.79;97908.09;7293031;19;151998;-53
2021/11/27 01:28:32;;;;;;;;;;;;;;;20.02;37.79;97899.66;7283268;19;153940;-53
2021/11/27 01:31:00;;;;;;;;;;;;;;;19.98;37.61;97896.00;7283571;19;152005;-53
2021/11/27 01:33:28;;;;;;;;;;;;;;;19.93;37.83;97885.91;7287423;19;154023;-53
2021/11/27 01:35:56;;;;;;;;;;;;;;;19.96;38.15;97882.34;7285592;19;154096;-52
2021/11/27 01:38:22;;;;;;;;;;;;;;;19.92;37.86;97877.88;7285812;19;152006;-53
2021/11/27 01:40:50;;;;;;;;;;;;;;;19.88;38.23;97872.22;7285949;19;153361;-53
2021/11/27 01:43:17;;;;;;;;;;;;;;;19.89;38.35;97882.25;7283387;19;154457;-53
2021/11/27 01:45:44;;;;;;;;;;;;;;;19.84;38.51;97878.97;7284486;19;152298;-52
2021/11/27 01:48:13;;;;;;;;;;;;;;;19.82;38.68;97872.94;7292662;19;152707;-53
2021/11/27 01:50:42;;;;;;;;;;;;;;;19.76;38.83;97877.25;7283782;19;152152;-53
2021/11/27 01:53:08;;;;;;;;;;;;;;;19.73;38.69;97866.78;7286153;19;153058;-52
2021/11/27 01:55:36;;;;;;;;;;;;;;;19.70;38.91;97857.16;7284649;19;153574;-52
2021/11/27 01:58:03;;;;;;;;;;;;;;;19.70;38.47;97865.56;7283639;19;151870;-53
2021/11/27 02:00:33;;;;;;;;;;;;;;;19.68;39.01;97845.53;7285940;19;153706;-52
2021/11/27 02:03:00;;;;;;;;;;;;;;;19.64;38.76;97858.66;7280584;19;153280;-52
2021/11/27 02:05:27;;;;;;;;;;;;;;;19.61;38.79;97856.63;7282022;19;151926;-53
2021/11/27 02:07:55;;;;;;;;;;;;;;;19.62;39.21;97858.25;7284364;19;152809;-53
2021/11/27 02:10:21;;;;;;;;;;;;;;;19.61;39.34;97853.03;7288973;19;153395;-53
2021/11/27 02:12:53;;;;;;;;;;;;;;;19.58;39.25;97853.78;7283954;19;153252;-53
2021/11/27 02:15:20;;;;;;;;;;;;;;;19.55;39.23;97838.53;7283491;19;152544;-53
2021/11/27 02:17:48;;;;;;;;;;;;;;;19.54;39.21;97848.91;7283575;19;152720;-52
2021/11/27 02:20:15;;;;;;;;;;;;;;;19.55;39.68;97835.72;7281926;19;151869;-53
2021/11/27 02:22:41;;;;;;;;;;;;;;;19.49;39.81;97849.25;7282736;19;153228;-52
2021/11/27 02:25:12;;;;;;;;;;;;;;;19.49;39.62;97851.22;7284857;19;151887;-52
2021/11/27 02:27:41;;;;;;;;;;;;;;;19.45;40.12;97845.56;7285636;19;152719;-52
2021/11/27 02:30:09;;;;;;;;;;;;;;;19.44;39.92;97837.56;7283446;19;154224;-53
2021/11/27 02:32:36;;;;;;;;;;;;;;;19.43;40.36;97835.94;7291738;19;152056;-52
2021/11/27 02:35:03;;;;;;;;;;;;;;;19.40;40.24;97837.47;7280779;19;152237;-52
2021/11/27 02:37:30;;;;;;;;;;;;;;;19.37;40.21;97845.81;7285447;19;152151;-53
2021/11/27 02:39:57;;;;;;;;;;;;;;;19.35;40.25;97843.38;7282769;19;153493;-53
2021/11/27 02:42:24;;;;;;;;;;;;;;;19.31;40.66;97847.31;7282429;19;153401;-53
2021/11/27 02:44:51;;;;;;;;;;;;;;;19.30;40.53;97851.31;7284690;19;152976;-53
2021/11/27 02:47:18;;;;;;;;;;;;;;;19.27;40.53;97857.66;7285884;19;152867;-52
2021/11/27 02:49:46;;;;;;;;;;;;;;;19.24;40.51;97859.22;7281419;19;153795;-52
2021/11/27 02:52:13;;;;;;;;;;;;;;;19.27;40.93;97857.66;7291554;19;152249;-52
2021/11/27 02:54:40;;;;;;;;;;;;;;;19.25;41.01;97874.84;7282806;19;153861;-53
2021/11/27 02:57:07;;;;;;;;;;;;;;;19.19;41.06;97892.31;7282544;19;151981;-53
2021/11/27 02:59:34;;;;;;;;;;;;;;;19.19;41.31;97911.91;7284081;19;153874;-53
2021/11/27 03:02:02;;;;;;;;;;;;;;;19.16;41.34;97940.63;7282407;19;154078;-53
2021/11/27 03:04:32;;;;;;;;;;;;;;;19.12;41.44;97931.38;7281808;19;152756;-53
2021/11/27 03:06:59;;;;;;;;;;;;;;;19.12;41.54;97939.75;7283262;19;152933;-53
2021/11/27 03:09:26;;;;;;;;;;;;;;;19.10;41.71;97940.94;7282915;19;153385;-52
2021/11/27 03:11:54;;;;;;;;;;;;;;;19.05;41.85;97949.63;7282414;19;152214;-52
2021/11/27 03:14:22;;;;;;;;;;;;;;;19.02;41.80;97963.56;7289393;19;152174;-52
2021/11/27 03:16:50;;;;;;;;;;;;;;;19.01;41.86;97957.16;7282944;19;151811;-53
2021/11/27 03:19:27;;;;;;;;;;;;;;;18.99;42.17;97955.91;7282024;19;152798;-53
2021/11/27 03:21:54;;;;;;;;;;;;;;;18.96;42.11;97974.25;7281948;19;153275;-52
2021/11/27 03:24:21;;;;;;;;;;;;;;;18.94;42.58;97971.00;7279523;19;151583;-52
2021/11/27 03:26:48;;;;;;;;;;;;;;;18.94;42.18;97976.59;7282670;19;153933;-52
2021/11/27 03:29:15;;;;;;;;;;;;;;;18.92;42.52;97984.56;7282060;19;154388;-53
2021/11/27 03:31:42;;;;;;;;;;;;;;;18.91;42.10;97982.94;7280078;19;152276;-52
2021/11/27 03:34:09;;;;;;;;;;;;;;;18.89;42.58;97979.72;7283181;19;152725;-53
2021/11/27 03:36:36;;;;;;;;;;;;;;;18.85;42.61;97994.81;7287025;19;152442;-52
2021/11/27 03:39:04;;;;;;;;;;;;;;;18.85;42.50;97995.59;7282245;19;152415;-52
2021/11/27 03:41:32;;;;;;;;;;;;;;;18.84;42.84;98009.97;7281331;19;154463;-53
2021/11/27 03:43:58;;;;;;;;;;;;;;;18.82;42.64;98006.72;7281067;19;152132;-52
2021/11/27 03:46:26;;;;;;;;;;;;;;;18.81;42.59;98017.09;7280855;19;152970;-53
2021/11/27 03:48:54;;;;;;;;;;;;;;;18.79;42.68;98025.06;7280295;19;152731;-52
2021/11/27 03:51:22;;;;;;;;;;;;;;;18.74;42.86;98030.94;7287058;19;151929;-52
2021/11/27 03:53:49;;;;;;;;;;;;;;;18.74;42.85;98030.13;7290091;19;152842;-53
2021/11/27 03:56:19;;;;;;;;;;;;;;;18.74;42.86;98036.53;7289696;19;153268;-53
2021/11/27 03:58:46;;;;;;;;;;;;;;;18.67;42.81;98037.19;7297705;19;151753;-53
2021/11/27 04:01:14;;;;;;;;;;;;;;;18.64;42.92;98045.50;7284574;19;154023;-53
2021/11/27 04:03:42;;;;;;;;;;;;;;;18.65;43.29;98061.94;7286445;19;152133;-52
2021/11/27 04:06:09;;;;;;;;;;;;;;;18.60;43.39;98067.00;7289261;19;152408;-52
2021/11/27 04:08:36;;;;;;;;;;;;;;;18.60;43.38;98067.00;7287866;19;152663;-53
2021/11/27 04:11:05;;;;;;;;;;;;;;;18.57;43.19;98078.91;7289186;19;151508;-53
2021/11/27 04:13:34;;;;;;;;;;;;;;;18.55;43.52;98075.66;7289552;19;152991;-53
2021/11/27 04:16:01;;;;;;;;;;;;;;;18.52;43.33;98087.56;7286658;19;153410;-53
2021/11/27 04:18:28;;;;;;;;;;;;;;;18.52;43.66;98087.56;7287557;19;152152;-52
2021/11/27 04:20:55;;;;;;;;;;;;;;;18.50;43.46;98101.88;7293154;19;152324;-52
2021/11/27 04:23:23;;;;;;;;;;;;;;;18.48;43.92;98112.63;7284103;19;152391;-52
2021/11/27 04:25:50;;;;;;;;;;;;;;;18.46;43.86;98119.75;7284691;19;151889;-52
2021/11/27 04:28:17;;;;;;;;;;;;;;;18.43;44.20;98138.06;7285839;19;152630;-52
2021/11/27 04:30:44;;;;;;;;;;;;;;;18.43;44.07;98137.25;7287415;19;151899;-52
2021/11/27 04:33:12;;;;;;;;;;;;;;;18.41;44.29;98143.19;7287627;19;153466;-52
2021/11/27 04:35:39;;;;;;;;;;;;;;;18.40;44.05;98152.75;7285214;19;154377;-53
2021/11/27 04:38:06;;;;;;;;;;;;;;;18.36;44.56;98154.66;7286329;19;152066;-52
2021/11/27 04:40:33;;;;;;;;;;;;;;;18.40;44.24;98163.94;7289149;19;152966;-52
2021/11/27 04:43:01;;;;;;;;;;;;;;;18.38;44.74;98163.50;7294658;19;153423;-52
2021/11/27 04:45:29;;;;;;;;;;;;;;;18.37;44.89;98175.03;7289454;19;152716;-52
2021/11/27 04:47:56;;;;;;;;;;;;;;;18.36;44.96;98173.41;7286673;19;152814;-53
2021/11/27 04:50:24;;;;;;;;;;;;;;;18.34;44.82;98184.97;7288467;19;151816;-53
2021/11/27 04:52:50;;;;;;;;;;;;;;;18.34;44.91;98196.16;7287183;19;153619;-53
2021/11/27 04:55:18;;;;;;;;;;;;;;;18.32;44.92;98206.88;7284180;19;153326;-53
2021/11/27 04:57:45;;;;;;;;;;;;;;;18.30;45.17;98212.03;7285073;19;152141;-53
2021/11/27 05:00:16;;;;;;;;;;;;;;;18.29;45.31;98221.56;7284546;19;152812;-52
2021/11/27 05:02:43;;;;;;;;;;;;;;;18.27;44.95;98220.28;7291542;19;153930;-52
2021/11/27 05:05:10;;;;;;;;;;;;;;;18.28;45.39;98233.09;7283258;19;152652;-53
2021/11/27 05:07:37;;;;;;;;;;;;;;;18.26;45.56;98255.03;7282872;19;153507;-52
2021/11/27 05:10:04;;;;;;;;;;;;;;;18.25;45.51;98254.22;7285210;19;151943;-52
2021/11/27 05:12:31;;;;;;;;;;;;;;;18.22;45.46;98264.09;7285640;19;153300;-52
2021/11/27 05:14:58;;;;;;;;;;;;;;;18.20;45.79;98283.22;7285585;19;153964;-52
2021/11/27 05:17:25;;;;;;;;;;;;;;;18.19;45.85;98294.75;7285402;19;151926;-52
2021/11/27 05:19:52;;;;;;;;;;;;;;;18.20;45.74;98299.19;7286351;19;152910;-52
2021/11/27 05:22:19;;;;;;;;;;;;;;;18.17;45.71;98302.66;7283373;19;153311;-53
2021/11/27 05:24:46;;;;;;;;;;;;;;;18.19;45.67;98312.34;7292908;19;151553;-52
2021/11/27 05:27:14;;;;;;;;;;;;;;;18.14;45.93;98325.75;7283794;19;153521;-53
2021/11/27 05:29:41;;;;;;;;;;;;;;;18.15;45.86;98342.16;7284273;19;151897;-53
2021/11/27 05:32:10;;;;;;;;;;;;;;;18.14;46.05;98342.50;7286780;19;153488;-52
2021/11/27 05:34:37;;;;;;;;;;;;;;;18.13;46.08;98349.25;7281820;19;154137;-53
2021/11/27 05:37:05;;;;;;;;;;;;;;;18.11;46.01;98358.03;7285646;19;152235;-52
2021/11/27 05:39:32;;;;;;;;;;;;;;;18.11;46.10;98363.59;7285420;19;152633;-52
2021/11/27 05:41:59;;;;;;;;;;;;;;;18.07;45.93;98370.25;7283366;19;152538;-52
2021/11/27 05:44:26;;;;;;;;;;;;;;;18.03;45.94;98378.53;7280027;19;151769;-52
2021/11/27 05:46:53;;;;;;;;;;;;;;;18.04;45.94;98390.50;7288839;19;151649;-52
2021/11/27 05:49:19;;;;;;;;;;;;;;;18.04;46.20;98384.91;7284504;19;151870;-52
2021/11/27 05:51:46;;;;;;;;;;;;;;;18.03;46.06;98389.72;7284600;19;152623;-52
2021/11/27 05:54:13;;;;;;;;;;;;;;;18.01;46.05;98403.22;7284907;19;153413;-52
2021/11/27 05:56:40;;;;;;;;;;;;;;;17.99;46.57;98415.94;7284491;19;152066;-52
2021/11/27 05:59:07;;;;;;;;;;;;;;;17.96;46.40;98417.44;7285035;19;152763;-53
2021/11/27 06:01:34;;;;;;;;;;;;;;;17.96;46.33;98427.78;7282564;19;153300;-52
2021/11/27 06:04:01;;;;;;;;;;;;;;;17.95;46.57;98440.94;7284186;19;152098;-52
2021/11/27 06:06:28;;;;;;;;;;;;;;;17.92;46.37;98449.22;7283725;19;153381;-53
2021/11/27 06:08:56;;;;;;;;;;;;;;;17.97;46.42;98455.38;7289779;19;152653;-53
2021/11/27 06:11:23;;;;;;;;;;;;;;;18.04;46.01;98463.97;7284237;19;153106;-53
2021/11/27 06:13:50;;;;;;;;;;;;;;;18.07;46.54;98473.66;7283549;19;153219;-53
2021/11/27 06:16:17;;;;;;;;;;;;;;;18.13;46.18;98489.78;7286599;19;152399;-52
2021/11/27 06:18:43;;;;;;;;;;;;;;;18.17;46.58;98489.91;7286988;19;152628;-52
2021/11/27 06:21:10;;;;;;;;;;;;;;;18.21;46.60;98493.66;7284962;19;154122;-53
2021/11/27 06:23:37;;;;;;;;;;;;;;;18.25;46.59;98508.53;7283372;19;151952;-52
2021/11/27 06:26:05;;;;;;;;;;;;;;;18.29;46.75;98501.06;7285001;19;152275;-52
2021/11/27 06:28:33;;;;;;;;;;;;;;;18.35;46.51;98521.22;7285635;19;153335;-52
2021/11/27 06:31:00;;;;;;;;;;;;;;;18.39;46.51;98538.91;7292932;19;152212;-52
2021/11/27 06:33:28;;;;;;;;;;;;;;;18.45;46.58;98531.88;7282816;19;153623;-52
2021/11/27 06:35:54;;;;;;;;;;;;;;;18.50;46.97;98538.06;7286719;19;151808;-52
2021/11/27 06:38:21;;;;;;;;;;;;;;;18.56;46.80;98550.66;7283110;19;152605;-53
2021/11/27 06:40:49;;;;;;;;;;;;;;;18.61;47.07;98558.81;7284860;19;153828;-52
2021/11/27 06:43:15;;;;;;;;;;;;;;;18.68;47.20;98569.38;7283989;19;151706;-52
2021/11/27 06:45:42;;;;;;;;;;;;;;;18.74;46.82;98576.38;7279701;19;152013;-52
2021/11/27 06:48:09;;;;;;;;;;;;;;;18.81;47.06;98592.53;7284371;19;152834;-52
2021/11/27 06:50:36;;;;;;;;;;;;;;;18.87;46.87;98588.31;7285951;19;151987;-52
2021/11/27 06:53:04;;;;;;;;;;;;;;;18.93;47.00;98595.31;7290313;19;152435;-52
2021/11/27 06:55:32;;;;;;;;;;;;;;;18.99;46.99;98611.47;7283501;19;151751;-53
2021/11/27 06:57:59;;;;;;;;;;;;;;;19.05;47.21;98612.03;7280467;19;154653;-53
2021/11/27 07:00:26;;;;;;;;;;;;;;;19.10;47.28;98621.00;7280289;19;154005;-53
2021/11/27 07:02:53;;;;;;;;;;;;;;;19.18;46.86;98624.81;7283992;19;151822;-52
2021/11/27 07:05:20;;;;;;;;;;;;;;;19.22;47.18;98639.72;7282175;19;153000;-53
2021/11/27 07:07:47;;;;;;;;;;;;;;;19.28;46.43;98649.50;7281712;19;153438;-52
2021/11/27 07:10:14;;;;;;;;;;;;;;;19.33;46.30;98654.84;7281494;19;152445;-53
2021/11/27 07:12:41;;;;;;;;;;;;;;;19.39;46.35;98655.44;7291463;19;152583;-53
2021/11/27 07:15:08;;;;;;;;;;;;;;;19.44;46.40;98660.81;7284353;19;153516;-52
2021/11/27 07:17:35;;;;;;;;;;;;;;;19.49;45.98;98660.53;7284017;19;153543;-53
2021/11/27 07:20:04;;;;;;;;;;;;;;;19.54;45.87;98671.47;7283134;19;153885;-53
2021/11/27 07:22:31;;;;;;;;;;;;;;;19.59;46.38;98684.41;7282069;19;151769;-52
2021/11/27 07:24:58;;;;;;;;;;;;;;;19.66;46.59;98693.03;7281480;19;152279;-52
2021/11/27 07:27:24;;;;;;;;;;;;;;;19.69;46.42;98695.91;7287908;19;153028;-52
2021/11/27 07:29:51;;;;;;;;;;;;;;;19.75;46.04;98702.09;7290994;19;151812;-53
2021/11/27 07:32:21;;;;;;;;;;;;;;;19.79;45.59;98712.22;7290662;19;152887;-52
2021/11/27 07:34:48;;;;;;;;;;;;;;;19.83;45.54;98721.53;7296487;19;154065;-52
2021/11/27 07:37:15;;;;;;;;;;;;;;;19.87;45.33;98730.84;7288925;19;153269;-52
2021/11/27 07:39:41;;;;;;;;;;;;;;;19.92;45.46;98736.22;7288939;19;153240;-52
2021/11/27 07:42:08;;;;;;;;;;;;;;;19.97;45.30;98751.94;7288262;19;151986;-52
2021/11/27 07:44:35;;;;;;;;;;;;;;;20.02;45.30;98748.06;7286794;19;152659;-52
2021/11/27 07:47:02;;;;;;;;;;;;;;;20.06;45.13;98763.81;7287708;19;154092;-53
2021/11/27 07:49:29;;;;;;;;;;;;;;;20.10;45.39;98778.75;7286610;19;151860;-52
2021/11/27 07:51:56;;;;;;;;;;;;;;;20.13;44.72;98785.59;7288795;19;152727;-52
2021/11/27 07:54:23;;;;;;;;;;;;;;;20.18;45.47;98779.75;7286926;19;153380;-52
2021/11/27 07:56:52;;;;;;;;;;;;;;;20.21;45.14;98805.09;7295741;19;151921;-53
2021/11/27 07:59:19;;;;;;;;;;;;;;;20.26;44.86;98806.81;7288873;19;153701;-53
2021/11/27 08:01:45;;;;;;;;;;;;;;;20.30;45.10;98813.38;7288990;19;151727;-53
2021/11/27 08:04:14;;;;;;;;;;;;;;;20.35;45.36;98818.72;7286187;19;152473;-53
2021/11/27 08:06:41;;;;;;;;;;;;;;;20.42;44.63;98827.31;7285610;19;154713;-53
2021/11/27 08:09:08;;;;;;;;;;;;;;;20.44;44.83;98830.59;7289610;19;152334;-53
2021/11/27 08:11:35;;;;;;;;;;;;;;;20.48;44.32;98842.72;7290257;19;153461;-54
2021/11/27 08:14:03;;;;;;;;;;;;;;;20.50;43.70;98854.38;7287193;19;153314;-54
2021/11/27 08:16:30;;;;;;;;;;;;;;;20.52;42.77;98852.06;7287040;19;151992;-53
2021/11/27 08:18:57;;;;;;;;;;;;;;;20.58;42.84;98849.81;7293117;19;153570;-53
2021/11/27 08:21:25;;;;;;;;;;;;;;;20.61;42.19;98858.31;7287883;19;151721;-54
2021/11/27 08:23:53;;;;;;;;;;;;;;;20.62;43.04;98868.38;7287725;19;153549;-53
2021/11/27 08:26:19;;;;;;;;;;;;;;;20.64;43.36;98871.59;7288034;19;152951;-53
2021/11/27 08:28:47;;;;;;;;;;;;;;;20.67;42.90;98881.31;7289753;19;152103;-53
2021/11/27 08:31:13;;;;;;;;;;;;;;;20.70;43.04;98897.41;7288525;19;153368;-53
2021/11/27 08:33:41;;;;;;;;;;;;;;;20.72;43.38;98893.06;7288953;19;154204;-53
2021/11/27 08:36:07;;;;;;;;;;;;;;;20.75;42.95;98909.22;7288166;19;151664;-53
2021/11/27 08:38:34;;;;;;;;;;;;;;;20.77;43.35;98909.66;7289363;19;152552;-53
2021/11/27 08:41:01;;;;;;;;;;;;;;;20.82;42.99;98922.59;7294225;19;153382;-53
2021/11/27 08:43:29;;;;;;;;;;;;;;;20.84;43.54;98935.13;7288850;19;152710;-52
2021/11/27 08:45:56;;;;;;;;;;;;;;;20.88;43.11;98948.44;7285044;19;153445;-53
2021/11/27 08:48:23;;;;;;;;;;;;;;;20.91;43.54;98942.06;7288935;19;152722;-53
2021/11/27 08:50:50;;;;;;;;;;;;;;;20.95;43.35;98952.22;7288666;19;152305;-53
2021/11/27 08:53:17;;;;;;;;;;;;;;;20.98;43.24;98959.94;7286558;19;153555;-54
2021/11/27 08:55:44;;;;;;;;;;;;;;;21.02;42.75;98966.47;7288818;19;152049;-54
2021/11/27 08:58:11;;;;;;;;;;;;;;;20.75;39.36;98968.16;7287924;19;152639;-54
2021/11/27 09:00:38;;;;;;;;;;;;;;;20.84;40.17;98987.63;7287937;19;153298;-55
2021/11/27 09:03:05;;;;;;;;;;;;;;;20.89;39.82;98989.38;7293623;19;152245;-54
2021/11/27 09:05:33;;;;;;;;;;;;;;;20.90;39.71;98994.59;7284380;19;152858;-54
2021/11/27 09:08:00;;;;;;;;;;;;;;;20.91;39.92;98989.81;7286418;19;152466;-54
2021/11/27 09:10:27;;;;;;;;;;;;;;;20.92;39.49;99000.69;7288626;19;153414;-55
2021/11/27 09:12:55;;;;;;;;;;;;;;;20.95;39.67;99004.75;7284372;19;153498;-54
2021/11/27 09:15:21;;;;;;;;;;;;;;;20.96;39.55;99006.38;7282760;19;151668;-54
2021/11/27 09:17:48;;;;;;;;;;;;;;;20.97;39.62;99013.66;7286795;19;152050;-52
2021/11/27 09:20:14;;;;;;;;;;;;;;;20.98;39.13;99018.09;7285637;19;154494;-51
2021/11/27 09:22:41;;;;;;;;;;;;;;;21.01;39.54;99035.03;7296805;19;152325;-53
2021/11/27 09:25:09;;;;;;;;;;;;;;;21.09;39.70;99039.66;7284075;19;153798;-52
2021/11/27 09:27:36;;;;;;;;;;;;;;;21.14;39.86;99049.84;7288479;19;151902;-53
2021/11/27 09:30:05;;;;;;;;;;;;;;;21.12;39.71;99058.59;7285316;19;153377;-53
2021/11/27 09:32:32;;;;;;;;;;;;;;;21.13;39.60;99059.44;7286712;19;153957;-53
2021/11/27 09:35:00;;;;;;;;;;;;;;;21.13;39.27;99067.88;7287292;19;151970;-53
2021/11/27 09:37:27;;;;;;;;;;;;;;;21.14;38.77;99069.50;7287224;19;152972;-54
2021/11/27 09:39:54;;;;;;;;;;;;;;;21.16;39.15;99084.03;7282540;19;152728;-54
2021/11/27 09:42:21;;;;;;;;;;;;;;;21.19;39.38;99078.50;7287188;19;152033;-52
2021/11/27 09:44:49;;;;;;;;;;;;;;;21.26;39.81;99100.34;7290197;19;152775;-55
2021/11/27 09:47:17;;;;;;;;;;;;;;;20.96;35.20;99101.84;7286913;19;151727;-54
2021/11/27 09:49:43;;;;;;;;;;;;;;;21.02;36.99;99100.44;7286570;19;153836;-54
2021/11/27 09:52:11;;;;;;;;;;;;;;;21.07;37.35;99094.56;7285697;19;153228;-53
2021/11/27 09:54:38;;;;;;;;;;;;;;;21.10;37.33;99119.13;7284242;19;151944;-54
2021/11/27 09:57:09;;;;;;;;;;;;;;;21.13;37.54;99129.66;7286737;19;153257;-54
2021/11/27 09:59:39;;;;;;;;;;;;;;;21.16;37.72;99128.97;7285450;19;153909;-54
2021/11/27 10:02:08;;;;;;;;;;;;;;;21.18;38.09;99129.41;7287007;19;151976;-54
2021/11/27 10:04:37;;;;;;;;;;;;;;;21.19;37.46;99143.09;7284178;19;153451;-54
2021/11/27 10:07:04;;;;;;;;;;;;;;;21.21;37.69;99143.53;7292616;19;153524;-54
2021/11/27 10:09:31;;;;;;;;;;;;;;;21.22;37.75;99148.00;7286163;19;153038;-55
2021/11/27 10:11:58;;;;;;;;;;;;;;;21.26;37.90;99160.16;7284665;19;154890;-54
2021/11/27 10:14:25;;;;;;;;;;;;;;;21.26;37.82;99157.34;7287280;19;152093;-54
2021/11/27 10:17:00;;;;;;;;;;;;;;;21.28;37.80;99187.88;7285535;19;153040;-53
2021/11/27 10:19:39;;;;;;;;;;;;;;;21.28;37.49;99185.91;7285259;19;154056;-54
2021/11/27 10:22:06;;;;;;;;;;;;;;;21.32;37.70;99188.00;7286021;19;151831;-53
2021/11/27 10:24:33;;;;;;;;;;;;;;;21.30;37.95;99191.19;7281774;19;151866;-53
2021/11/27 10:27:00;;;;;;;;;;;;;;;21.32;37.78;99188.81;7284254;19;153134;-54
2021/11/27 10:29:34;;;;;;;;;;;;;;;21.35;37.60;99192.91;7293600;19;151965;-54
2021/11/27 10:32:04;;;;;;;;;;;;;;;21.36;37.56;99188.91;7285260;19;153246;-54
2021/11/27 10:34:31;;;;;;;;;;;;;;;21.37;37.79;99201.78;7286725;19;151873;-55
2021/11/27 10:37:21;;;;;;;;;;;;;;;21.37;37.37;99197.00;7286390;19;153102;-54
2021/11/27 10:39:57;;;;;;;;;;;;;;;21.39;37.32;99214.31;7284287;19;153827;-54
2021/11/27 10:42:24;;;;;;;;;;;;;;;21.40;37.76;99218.75;7286364;19;151848;-54
2021/11/27 10:44:52;;;;;;;;;;;;;;;21.41;37.28;99209.16;7280608;19;153896;-54
2021/11/27 10:47:20;;;;;;;;;;;;;;;21.40;37.22;99232.78;7282247;19;153261;-54
2021/11/27 10:49:48;;;;;;;;;;;;;;;21.43;37.72;99232.09;7285454;19;151787;-54
2021/11/27 10:52:22;;;;;;;;;;;;;;;21.44;37.38;99230.91;7290226;19;153397;-54
2021/11/27 10:54:50;;;;;;;;;;;;;;;21.46;37.85;99220.13;7282035;19;152349;-54
2021/11/27 10:57:31;;;;;;;;;;;;;;;21.47;37.68;99230.22;7281849;19;153453;-54
2021/11/27 11:00:00;;;;;;;;;;;;;;;21.47;37.42;99221.78;7281594;19;153200;-55
2021/11/27 11:02:28;;;;;;;;;;;;;;;21.50;37.54;99234.28;7284393;19;152083;-54
2021/11/27 11:04:58;;;;;;;;;;;;;;;21.50;37.24;99251.97;7277976;19;153784;-54
2021/11/27 11:07:27;;;;;;;;;;;;;;;21.51;37.62;99239.56;7280038;19;152477;-53
2021/11/27 11:09:57;;;;;;;;;;;;;;;21.53;37.20;99250.44;7281136;19;152369;-54
2021/11/27 11:12:27;;;;;;;;;;;;;;;21.52;37.10;99255.25;7280806;19;152825;-54
2021/11/27 11:15:02;;;;;;;;;;;;;;;21.53;37.26;99256.84;7288037;19;152003;-54
2021/11/27 11:17:29;;;;;;;;;;;;;;;21.56;37.29;99269.41;7284129;19;152777;-54
2021/11/27 11:20:10;;;;;;;;;;;;;;;21.55;37.42;99267.75;7283424;19;153857;-54
2021/11/27 11:22:39;;;;;;;;;;;;;;;21.58;37.49;99275.47;7284376;19;152335;-54
2021/11/27 11:25:09;;;;;;;;;;;;;;;21.59;37.14;99282.72;7282038;19;152884;-54
2021/11/27 11:27:36;;;;;;;;;;;;;;;21.59;37.66;99289.19;7279265;19;154128;-54
2021/11/27 11:30:05;;;;;;;;;;;;;;;21.62;37.29;99287.66;7284391;19;151912;-53
2021/11/27 11:32:32;;;;;;;;;;;;;;;21.64;37.59;99294.53;7284307;19;153060;-54
2021/11/27 11:35:03;;;;;;;;;;;;;;;21.66;37.48;99297.00;7290408;19;154407;-54
2021/11/27 11:37:30;;;;;;;;;;;;;;;21.63;37.17;99295.72;7283643;19;154013;-54
2021/11/27 11:39:57;;;;;;;;;;;;;;;21.65;37.32;99287.75;7278831;19;152294;-54
2021/11/27 11:42:26;;;;;;;;;;;;;;;21.64;37.49;99302.97;7283760;19;152292;-54
2021/11/27 11:44:53;;;;;;;;;;;;;;;21.65;37.41;99310.25;7281350;19;152497;-54
2021/11/27 11:47:20;;;;;;;;;;;;;;;21.64;37.52;99311.41;7283267;19;154073;-54
2021/11/27 11:49:50;;;;;;;;;;;;;;;21.64;36.96;99319.03;7283102;19;151793;-54
2021/11/27 11:52:20;;;;;;;;;;;;;;;21.62;36.82;99322.19;7283901;19;153452;-54
2021/11/27 11:54:48;;;;;;;;;;;;;;;21.60;37.28;99323.72;7281658;19;154098;-54
2021/11/27 11:57:15;;;;;;;;;;;;;;;21.57;37.30;99322.44;7290886;19;152624;-54
2021/11/27 11:59:42;;;;;;;;;;;;;;;21.58;37.05;99326.88;7282156;19;153789;-53
2021/11/27 12:02:10;;;;;;;;;;;;;;;21.55;36.96;99327.59;7281498;19;152042;-54
2021/11/27 12:04:38;;;;;;;;;;;;;;;21.52;37.05;99330.31;7279462;19;152714;-54
2021/11/27 12:07:08;;;;;;;;;;;;;;;21.50;36.95;99341.06;7282577;19;153667;-53
2021/11/27 12:09:34;;;;;;;;;;;;;;;21.45;36.75;99344.94;7282288;19;152115;-54
2021/11/27 12:12:16;;;;;;;;;;;;;;;21.45;36.97;99342.13;7286617;19;153155;-54
2021/11/27 12:14:54;;;;;;;;;;;;;;;21.42;36.78;99342.03;7288902;19;153130;-53
2021/11/27 12:17:21;;;;;;;;;;;;;;;21.39;37.09;99349.19;7290536;19;151860;-54
2021/11/27 12:19:52;;;;;;;;;;;;;;;21.39;37.23;99345.56;7294708;19;153683;-54
2021/11/27 12:22:31;;;;;;;;;;;;;;;21.34;36.81;99345.78;7290025;19;152049;-54
2021/11/27 12:25:01;;;;;;;;;;;;;;;21.30;36.66;99356.91;7288299;19;153164;-54
2021/11/27 12:27:28;;;;;;;;;;;;;;;21.30;36.83;99357.72;7288567;19;153515;-54
2021/11/27 12:30:01;;;;;;;;;;;;;;;21.23;36.86;99354.69;7288433;19;151786;-54
2021/11/27 12:32:31;;;;;;;;;;;;;;;21.21;37.00;99354.19;7289166;19;153525;-54
2021/11/27 12:35:22;;;;;;;;;;;;;;;21.22;36.98;99375.50;7288299;19;153586;-54
2021/11/27 12:37:49;;;;;;;;;;;;;;;21.19;37.21;99373.41;7287880;19;151769;-54
2021/11/27 12:40:51;;;;;;;;;;;;;;;21.20;37.60;99371.44;7289423;19;152593;-54